sensor_id;sensor_type;location;lat;lon;timestamp;P1;durP1;ratioP1;P2;durP2;ratioP2
75016;SDS011;63577;39.766;2.720;2024-01-25T00:00:15;5.60;;;2.90;;
75016;SDS011;63577;39.766;2.720;2024-01-25T00:02:41;5.70;;;2.20;;
75016;SDS011;63577;39.766;2.720;2024-01-25T00:05:07;5.20;;;2.40;;
75016;SDS011;63577;39.766;2.720;2024-01-25T00:07:33;4.30;;;1.70;;
75016;SDS011;63577;39.766;2.720;2024-01-25T00:09:58;8.20;;;4.30;;
75016;SDS011;63577;39.766;2.720;2024-01-25T00:12:23;5.20;;;2.50;;
75016;SDS011;63577;39.766;2.720;2024-01-25T00:14:49;5.00;;;1.90;;
75016;SDS011;63577;39.766;2.720;2024-01-25T00:17:14;3.90;;;1.60;;
75016;SDS011;63577;39.766;2.720;2024-01-25T00:19:39;3.80;;;1.60;;
75016;SDS011;63577;39.766;2.720;2024-01-25T00:22:06;3.80;;;1.60;;
75016;SDS011;63577;39.766;2.720;2024-01-25T00:24:32;3.70;;;1.50;;
75016;SDS011;63577;39.766;2.720;2024-01-25T00:26:57;5.20;;;2.10;;
75016;SDS011;63577;39.766;2.720;2024-01-25T00:29:23;3.90;;;1.80;;
75016;SDS011;63577;39.766;2.720;2024-01-25T00:31:48;8.20;;;2.20;;
75016;SDS011;63577;39.766;2.720;2024-01-25T00:34:14;4.30;;;1.80;;
75016;SDS011;63577;39.766;2.720;2024-01-25T00:36:39;4.20;;;1.90;;
75016;SDS011;63577;39.766;2.720;2024-01-25T00:39:05;6.30;;;3.50;;
75016;SDS011;63577;39.766;2.720;2024-01-25T00:41:30;5.90;;;2.90;;
75016;SDS011;63577;39.766;2.720;2024-01-25T00:43:57;4.70;;;2.30;;
75016;SDS011;63577;39.766;2.720;2024-01-25T00:46:22;4.90;;;1.90;;
75016;SDS011;63577;39.766;2.720;2024-01-25T00:48:48;4.80;;;1.90;;
75016;SDS011;63577;39.766;2.720;2024-01-25T00:51:19;4.00;;;1.60;;
75016;SDS011;63577;39.766;2.720;2024-01-25T00:53:46;4.90;;;2.50;;
75016;SDS011;63577;39.766;2.720;2024-01-25T00:56:11;4.20;;;1.90;;
75016;SDS011;63577;39.766;2.720;2024-01-25T00:58:37;5.10;;;2.10;;
75016;SDS011;63577;39.766;2.720;2024-01-25T01:01:02;9.10;;;5.20;;
75016;SDS011;63577;39.766;2.720;2024-01-25T01:03:28;5.90;;;3.00;;
75016;SDS011;63577;39.766;2.720;2024-01-25T01:05:54;7.20;;;3.70;;
75016;SDS011;63577;39.766;2.720;2024-01-25T01:08:19;5.90;;;2.50;;
75016;SDS011;63577;39.766;2.720;2024-01-25T01:10:45;5.80;;;2.60;;
75016;SDS011;63577;39.766;2.720;2024-01-25T01:13:11;4.60;;;2.00;;
75016;SDS011;63577;39.766;2.720;2024-01-25T01:15:37;3.20;;;1.30;;
75016;SDS011;63577;39.766;2.720;2024-01-25T01:18:02;3.80;;;1.50;;
75016;SDS011;63577;39.766;2.720;2024-01-25T01:20:30;4.10;;;1.10;;
75016;SDS011;63577;39.766;2.720;2024-01-25T01:22:56;4.70;;;2.30;;
75016;SDS011;63577;39.766;2.720;2024-01-25T01:25:21;4.10;;;1.50;;
75016;SDS011;63577;39.766;2.720;2024-01-25T01:27:47;2.70;;;1.00;;
75016;SDS011;63577;39.766;2.720;2024-01-25T01:30:12;44.20;;;18.90;;
75016;SDS011;63577;39.766;2.720;2024-01-25T01:32:38;24.70;;;9.40;;
75016;SDS011;63577;39.766;2.720;2024-01-25T01:35:04;19.60;;;8.40;;
75016;SDS011;63577;39.766;2.720;2024-01-25T01:37:29;14.00;;;5.50;;
75016;SDS011;63577;39.766;2.720;2024-01-25T01:39:54;10.70;;;4.00;;
75016;SDS011;63577;39.766;2.720;2024-01-25T01:42:21;9.50;;;4.00;;
75016;SDS011;63577;39.766;2.720;2024-01-25T01:44:46;8.80;;;3.60;;
75016;SDS011;63577;39.766;2.720;2024-01-25T01:47:12;8.70;;;3.50;;
75016;SDS011;63577;39.766;2.720;2024-01-25T01:49:37;9.60;;;3.60;;
75016;SDS011;63577;39.766;2.720;2024-01-25T01:52:03;7.50;;;3.20;;
75016;SDS011;63577;39.766;2.720;2024-01-25T01:54:29;6.80;;;3.00;;
75016;SDS011;63577;39.766;2.720;2024-01-25T01:56:54;6.30;;;2.50;;
75016;SDS011;63577;39.766;2.720;2024-01-25T01:59:20;7.50;;;2.90;;
75016;SDS011;63577;39.766;2.720;2024-01-25T02:01:45;5.00;;;1.90;;
75016;SDS011;63577;39.766;2.720;2024-01-25T02:04:11;6.10;;;2.30;;
75016;SDS011;63577;39.766;2.720;2024-01-25T02:06:36;5.20;;;2.00;;
75016;SDS011;63577;39.766;2.720;2024-01-25T02:09:02;4.90;;;2.00;;
75016;SDS011;63577;39.766;2.720;2024-01-25T02:11:28;5.80;;;2.00;;
75016;SDS011;63577;39.766;2.720;2024-01-25T02:13:53;5.00;;;2.10;;
75016;SDS011;63577;39.766;2.720;2024-01-25T02:16:19;7.80;;;3.20;;
75016;SDS011;63577;39.766;2.720;2024-01-25T02:18:45;7.00;;;3.00;;
75016;SDS011;63577;39.766;2.720;2024-01-25T02:21:11;14.20;;;7.20;;
75016;SDS011;63577;39.766;2.720;2024-01-25T02:23:37;12.80;;;6.30;;
75016;SDS011;63577;39.766;2.720;2024-01-25T02:26:02;9.90;;;5.10;;
75016;SDS011;63577;39.766;2.720;2024-01-25T02:28:27;8.90;;;4.60;;
75016;SDS011;63577;39.766;2.720;2024-01-25T02:30:53;7.00;;;3.90;;
75016;SDS011;63577;39.766;2.720;2024-01-25T02:33:18;6.70;;;2.80;;
75016;SDS011;63577;39.766;2.720;2024-01-25T02:35:44;5.50;;;2.50;;
75016;SDS011;63577;39.766;2.720;2024-01-25T02:38:09;5.60;;;2.30;;
75016;SDS011;63577;39.766;2.720;2024-01-25T02:40:35;4.70;;;2.30;;
75016;SDS011;63577;39.766;2.720;2024-01-25T02:43:00;4.80;;;1.80;;
75016;SDS011;63577;39.766;2.720;2024-01-25T02:45:25;5.70;;;2.30;;
75016;SDS011;63577;39.766;2.720;2024-01-25T02:47:51;6.50;;;3.10;;
75016;SDS011;63577;39.766;2.720;2024-01-25T02:50:16;6.30;;;2.80;;
75016;SDS011;63577;39.766;2.720;2024-01-25T02:52:41;4.40;;;2.00;;
75016;SDS011;63577;39.766;2.720;2024-01-25T02:55:07;5.90;;;2.00;;
75016;SDS011;63577;39.766;2.720;2024-01-25T02:57:32;5.30;;;1.70;;
75016;SDS011;63577;39.766;2.720;2024-01-25T02:59:58;4.30;;;2.10;;
75016;SDS011;63577;39.766;2.720;2024-01-25T03:02:23;4.90;;;2.00;;
75016;SDS011;63577;39.766;2.720;2024-01-25T03:04:49;4.10;;;1.90;;
75016;SDS011;63577;39.766;2.720;2024-01-25T03:07:14;4.20;;;2.00;;
75016;SDS011;63577;39.766;2.720;2024-01-25T03:09:40;4.50;;;1.50;;
75016;SDS011;63577;39.766;2.720;2024-01-25T03:12:05;4.00;;;1.40;;
75016;SDS011;63577;39.766;2.720;2024-01-25T03:14:31;4.50;;;1.30;;
75016;SDS011;63577;39.766;2.720;2024-01-25T03:16:56;3.80;;;1.40;;
75016;SDS011;63577;39.766;2.720;2024-01-25T03:19:25;3.80;;;1.30;;
75016;SDS011;63577;39.766;2.720;2024-01-25T03:21:51;4.20;;;1.40;;
75016;SDS011;63577;39.766;2.720;2024-01-25T03:24:16;3.90;;;1.20;;
75016;SDS011;63577;39.766;2.720;2024-01-25T03:26:42;4.70;;;1.50;;
75016;SDS011;63577;39.766;2.720;2024-01-25T03:29:07;3.60;;;1.50;;
75016;SDS011;63577;39.766;2.720;2024-01-25T03:31:32;3.60;;;1.40;;
75016;SDS011;63577;39.766;2.720;2024-01-25T03:33:58;3.50;;;1.40;;
75016;SDS011;63577;39.766;2.720;2024-01-25T03:36:23;4.40;;;1.70;;
75016;SDS011;63577;39.766;2.720;2024-01-25T03:38:49;3.40;;;1.40;;
75016;SDS011;63577;39.766;2.720;2024-01-25T03:41:14;5.00;;;1.80;;
75016;SDS011;63577;39.766;2.720;2024-01-25T03:43:39;4.10;;;1.80;;
75016;SDS011;63577;39.766;2.720;2024-01-25T03:46:05;5.80;;;2.20;;
75016;SDS011;63577;39.766;2.720;2024-01-25T03:48:30;5.10;;;1.90;;
75016;SDS011;63577;39.766;2.720;2024-01-25T03:50:55;4.60;;;1.70;;
75016;SDS011;63577;39.766;2.720;2024-01-25T03:53:22;3.50;;;1.50;;
75016;SDS011;63577;39.766;2.720;2024-01-25T03:55:47;4.00;;;1.60;;
75016;SDS011;63577;39.766;2.720;2024-01-25T03:58:14;4.50;;;1.60;;
75016;SDS011;63577;39.766;2.720;2024-01-25T04:00:40;5.70;;;1.60;;
75016;SDS011;63577;39.766;2.720;2024-01-25T04:03:05;4.20;;;1.50;;
75016;SDS011;63577;39.766;2.720;2024-01-25T04:05:30;3.40;;;1.30;;
75016;SDS011;63577;39.766;2.720;2024-01-25T04:07:56;3.20;;;1.20;;
75016;SDS011;63577;39.766;2.720;2024-01-25T04:10:21;3.40;;;1.50;;
75016;SDS011;63577;39.766;2.720;2024-01-25T04:12:47;3.10;;;1.30;;
75016;SDS011;63577;39.766;2.720;2024-01-25T04:15:12;4.00;;;1.50;;
75016;SDS011;63577;39.766;2.720;2024-01-25T04:17:38;3.70;;;1.40;;
75016;SDS011;63577;39.766;2.720;2024-01-25T04:20:03;3.60;;;1.70;;
75016;SDS011;63577;39.766;2.720;2024-01-25T04:22:29;4.70;;;1.40;;
75016;SDS011;63577;39.766;2.720;2024-01-25T04:24:54;3.60;;;1.40;;
75016;SDS011;63577;39.766;2.720;2024-01-25T04:27:20;3.50;;;1.50;;
75016;SDS011;63577;39.766;2.720;2024-01-25T04:29:45;4.20;;;1.70;;
75016;SDS011;63577;39.766;2.720;2024-01-25T04:32:12;3.80;;;1.40;;
75016;SDS011;63577;39.766;2.720;2024-01-25T04:34:37;3.50;;;1.30;;
75016;SDS011;63577;39.766;2.720;2024-01-25T04:37:02;3.60;;;1.60;;
75016;SDS011;63577;39.766;2.720;2024-01-25T04:39:28;4.10;;;1.30;;
75016;SDS011;63577;39.766;2.720;2024-01-25T04:41:53;4.10;;;1.40;;
75016;SDS011;63577;39.766;2.720;2024-01-25T04:44:18;4.50;;;1.60;;
75016;SDS011;63577;39.766;2.720;2024-01-25T04:46:44;5.60;;;1.70;;
75016;SDS011;63577;39.766;2.720;2024-01-25T04:49:09;5.30;;;1.40;;
75016;SDS011;63577;39.766;2.720;2024-01-25T04:51:35;4.70;;;1.40;;
75016;SDS011;63577;39.766;2.720;2024-01-25T04:54:00;3.70;;;1.40;;
75016;SDS011;63577;39.766;2.720;2024-01-25T04:56:26;4.60;;;1.60;;
75016;SDS011;63577;39.766;2.720;2024-01-25T04:58:51;3.40;;;1.40;;
75016;SDS011;63577;39.766;2.720;2024-01-25T05:01:17;3.30;;;1.20;;
75016;SDS011;63577;39.766;2.720;2024-01-25T05:03:42;4.00;;;2.00;;
75016;SDS011;63577;39.766;2.720;2024-01-25T05:06:07;3.90;;;1.40;;
75016;SDS011;63577;39.766;2.720;2024-01-25T05:08:33;4.00;;;1.80;;
75016;SDS011;63577;39.766;2.720;2024-01-25T05:10:58;3.30;;;1.60;;
75016;SDS011;63577;39.766;2.720;2024-01-25T05:13:23;4.10;;;2.10;;
75016;SDS011;63577;39.766;2.720;2024-01-25T05:15:49;4.10;;;2.00;;
75016;SDS011;63577;39.766;2.720;2024-01-25T05:18:15;4.10;;;2.00;;
75016;SDS011;63577;39.766;2.720;2024-01-25T05:20:40;4.30;;;1.90;;
75016;SDS011;63577;39.766;2.720;2024-01-25T05:23:05;4.60;;;1.60;;
75016;SDS011;63577;39.766;2.720;2024-01-25T05:25:31;3.90;;;1.70;;
75016;SDS011;63577;39.766;2.720;2024-01-25T05:27:57;4.50;;;1.70;;
75016;SDS011;63577;39.766;2.720;2024-01-25T05:30:23;3.70;;;1.70;;
75016;SDS011;63577;39.766;2.720;2024-01-25T05:32:49;4.50;;;1.80;;
75016;SDS011;63577;39.766;2.720;2024-01-25T05:35:15;5.20;;;1.90;;
75016;SDS011;63577;39.766;2.720;2024-01-25T05:37:40;4.60;;;1.70;;
75016;SDS011;63577;39.766;2.720;2024-01-25T05:40:06;4.70;;;1.90;;
75016;SDS011;63577;39.766;2.720;2024-01-25T05:42:31;3.80;;;1.60;;
75016;SDS011;63577;39.766;2.720;2024-01-25T05:44:57;3.70;;;1.70;;
75016;SDS011;63577;39.766;2.720;2024-01-25T05:47:23;3.90;;;1.90;;
75016;SDS011;63577;39.766;2.720;2024-01-25T05:49:48;4.90;;;2.20;;
75016;SDS011;63577;39.766;2.720;2024-01-25T05:52:13;5.40;;;2.20;;
75016;SDS011;63577;39.766;2.720;2024-01-25T05:54:39;5.00;;;2.00;;
75016;SDS011;63577;39.766;2.720;2024-01-25T05:57:04;4.60;;;1.70;;
75016;SDS011;63577;39.766;2.720;2024-01-25T05:59:30;4.50;;;1.80;;
75016;SDS011;63577;39.766;2.720;2024-01-25T06:01:55;3.80;;;1.70;;
75016;SDS011;63577;39.766;2.720;2024-01-25T06:04:20;3.40;;;1.40;;
75016;SDS011;63577;39.766;2.720;2024-01-25T06:06:46;3.90;;;1.40;;
75016;SDS011;63577;39.766;2.720;2024-01-25T06:09:11;4.20;;;1.50;;
75016;SDS011;63577;39.766;2.720;2024-01-25T06:11:37;3.90;;;1.40;;
75016;SDS011;63577;39.766;2.720;2024-01-25T06:14:04;3.70;;;1.50;;
75016;SDS011;63577;39.766;2.720;2024-01-25T06:16:30;4.30;;;1.50;;
75016;SDS011;63577;39.766;2.720;2024-01-25T06:18:55;4.30;;;1.70;;
75016;SDS011;63577;39.766;2.720;2024-01-25T06:21:20;5.10;;;1.70;;
75016;SDS011;63577;39.766;2.720;2024-01-25T06:23:46;4.30;;;1.70;;
75016;SDS011;63577;39.766;2.720;2024-01-25T06:26:11;4.20;;;1.90;;
75016;SDS011;63577;39.766;2.720;2024-01-25T06:28:36;5.20;;;2.00;;
75016;SDS011;63577;39.766;2.720;2024-01-25T06:31:02;4.20;;;2.00;;
75016;SDS011;63577;39.766;2.720;2024-01-25T06:33:27;4.40;;;2.00;;
75016;SDS011;63577;39.766;2.720;2024-01-25T06:35:53;5.70;;;1.90;;
75016;SDS011;63577;39.766;2.720;2024-01-25T06:38:19;5.10;;;1.70;;
75016;SDS011;63577;39.766;2.720;2024-01-25T06:40:44;4.90;;;1.80;;
75016;SDS011;63577;39.766;2.720;2024-01-25T06:43:09;4.50;;;1.80;;
75016;SDS011;63577;39.766;2.720;2024-01-25T06:45:36;4.70;;;2.00;;
75016;SDS011;63577;39.766;2.720;2024-01-25T06:48:02;5.00;;;1.80;;
75016;SDS011;63577;39.766;2.720;2024-01-25T06:50:27;4.50;;;2.30;;
75016;SDS011;63577;39.766;2.720;2024-01-25T06:52:53;5.80;;;2.20;;
75016;SDS011;63577;39.766;2.720;2024-01-25T06:55:20;4.20;;;1.90;;
75016;SDS011;63577;39.766;2.720;2024-01-25T06:57:45;4.90;;;1.90;;
75016;SDS011;63577;39.766;2.720;2024-01-25T07:00:11;4.00;;;1.70;;
75016;SDS011;63577;39.766;2.720;2024-01-25T07:02:38;4.30;;;1.70;;
75016;SDS011;63577;39.766;2.720;2024-01-25T07:05:03;4.90;;;1.90;;
75016;SDS011;63577;39.766;2.720;2024-01-25T07:07:29;5.20;;;1.60;;
75016;SDS011;63577;39.766;2.720;2024-01-25T07:09:57;3.90;;;2.00;;
75016;SDS011;63577;39.766;2.720;2024-01-25T07:12:22;5.50;;;1.90;;
75016;SDS011;63577;39.766;2.720;2024-01-25T07:14:48;4.00;;;2.00;;
75016;SDS011;63577;39.766;2.720;2024-01-25T07:17:13;4.20;;;2.20;;
75016;SDS011;63577;39.766;2.720;2024-01-25T07:19:38;5.90;;;2.40;;
75016;SDS011;63577;39.766;2.720;2024-01-25T07:22:04;5.20;;;3.10;;
75016;SDS011;63577;39.766;2.720;2024-01-25T07:24:30;6.00;;;2.20;;
75016;SDS011;63577;39.766;2.720;2024-01-25T07:26:55;4.80;;;2.40;;
75016;SDS011;63577;39.766;2.720;2024-01-25T07:29:20;5.50;;;1.90;;
75016;SDS011;63577;39.766;2.720;2024-01-25T07:31:46;4.40;;;1.90;;
75016;SDS011;63577;39.766;2.720;2024-01-25T07:34:11;3.90;;;1.80;;
75016;SDS011;63577;39.766;2.720;2024-01-25T07:36:36;4.40;;;1.70;;
75016;SDS011;63577;39.766;2.720;2024-01-25T07:39:02;3.90;;;1.70;;
75016;SDS011;63577;39.766;2.720;2024-01-25T07:41:27;4.00;;;2.00;;
75016;SDS011;63577;39.766;2.720;2024-01-25T07:43:53;4.50;;;1.80;;
75016;SDS011;63577;39.766;2.720;2024-01-25T07:46:20;5.20;;;2.60;;
75016;SDS011;63577;39.766;2.720;2024-01-25T07:48:45;5.80;;;2.80;;
75016;SDS011;63577;39.766;2.720;2024-01-25T07:51:11;6.50;;;3.10;;
75016;SDS011;63577;39.766;2.720;2024-01-25T07:53:38;8.40;;;3.70;;
75016;SDS011;63577;39.766;2.720;2024-01-25T07:56:05;7.60;;;3.60;;
75016;SDS011;63577;39.766;2.720;2024-01-25T07:58:31;9.10;;;4.80;;
75016;SDS011;63577;39.766;2.720;2024-01-25T08:00:56;9.70;;;4.90;;
75016;SDS011;63577;39.766;2.720;2024-01-25T08:03:21;11.90;;;5.60;;
75016;SDS011;63577;39.766;2.720;2024-01-25T08:05:47;11.30;;;5.90;;
75016;SDS011;63577;39.766;2.720;2024-01-25T08:08:12;12.00;;;5.70;;
75016;SDS011;63577;39.766;2.720;2024-01-25T08:10:38;12.70;;;5.80;;
75016;SDS011;63577;39.766;2.720;2024-01-25T08:13:03;15.20;;;7.50;;
75016;SDS011;63577;39.766;2.720;2024-01-25T08:15:28;24.80;;;11.50;;
75016;SDS011;63577;39.766;2.720;2024-01-25T08:17:54;25.60;;;13.90;;
75016;SDS011;63577;39.766;2.720;2024-01-25T08:20:20;20.20;;;10.30;;
75016;SDS011;63577;39.766;2.720;2024-01-25T08:22:45;21.80;;;11.90;;
75016;SDS011;63577;39.766;2.720;2024-01-25T08:25:10;24.80;;;12.60;;
75016;SDS011;63577;39.766;2.720;2024-01-25T08:27:39;25.40;;;13.90;;
75016;SDS011;63577;39.766;2.720;2024-01-25T08:30:05;24.00;;;12.50;;
75016;SDS011;63577;39.766;2.720;2024-01-25T08:32:31;23.00;;;12.70;;
75016;SDS011;63577;39.766;2.720;2024-01-25T08:34:56;34.00;;;18.90;;
75016;SDS011;63577;39.766;2.720;2024-01-25T08:37:22;38.50;;;19.20;;
75016;SDS011;63577;39.766;2.720;2024-01-25T08:39:47;38.90;;;19.50;;
75016;SDS011;63577;39.766;2.720;2024-01-25T08:42:16;37.70;;;20.40;;
75016;SDS011;63577;39.766;2.720;2024-01-25T08:44:42;39.90;;;22.20;;
75016;SDS011;63577;39.766;2.720;2024-01-25T08:47:14;42.60;;;22.20;;
75016;SDS011;63577;39.766;2.720;2024-01-25T08:49:40;40.00;;;22.20;;
75016;SDS011;63577;39.766;2.720;2024-01-25T08:52:05;44.80;;;24.00;;
75016;SDS011;63577;39.766;2.720;2024-01-25T08:54:32;39.30;;;21.20;;
75016;SDS011;63577;39.766;2.720;2024-01-25T08:56:57;40.10;;;22.20;;
75016;SDS011;63577;39.766;2.720;2024-01-25T08:59:23;37.60;;;21.30;;
75016;SDS011;63577;39.766;2.720;2024-01-25T09:01:48;41.60;;;22.00;;
75016;SDS011;63577;39.766;2.720;2024-01-25T09:04:13;41.40;;;21.00;;
75016;SDS011;63577;39.766;2.720;2024-01-25T09:06:39;38.10;;;21.50;;
75016;SDS011;63577;39.766;2.720;2024-01-25T09:09:04;37.60;;;20.60;;
75016;SDS011;63577;39.766;2.720;2024-01-25T09:11:30;32.20;;;18.50;;
75016;SDS011;63577;39.766;2.720;2024-01-25T09:13:56;39.80;;;20.00;;
75016;SDS011;63577;39.766;2.720;2024-01-25T09:16:21;34.00;;;18.50;;
75016;SDS011;63577;39.766;2.720;2024-01-25T09:18:47;29.70;;;16.40;;
75016;SDS011;63577;39.766;2.720;2024-01-25T09:21:13;39.80;;;21.10;;
75016;SDS011;63577;39.766;2.720;2024-01-25T09:23:38;81.80;;;38.20;;
75016;SDS011;63577;39.766;2.720;2024-01-25T09:26:04;87.10;;;40.20;;
75016;SDS011;63577;39.766;2.720;2024-01-25T09:28:30;110.50;;;50.90;;
75016;SDS011;63577;39.766;2.720;2024-01-25T09:30:55;133.50;;;61.10;;
75016;SDS011;63577;39.766;2.720;2024-01-25T09:33:21;82.60;;;41.20;;
75016;SDS011;63577;39.766;2.720;2024-01-25T09:35:46;78.20;;;38.90;;
75016;SDS011;63577;39.766;2.720;2024-01-25T09:38:12;71.50;;;36.10;;
75016;SDS011;63577;39.766;2.720;2024-01-25T09:40:38;39.20;;;20.70;;
75016;SDS011;63577;39.766;2.720;2024-01-25T09:43:03;38.10;;;21.70;;
75016;SDS011;63577;39.766;2.720;2024-01-25T09:45:29;38.60;;;22.90;;
75016;SDS011;63577;39.766;2.720;2024-01-25T09:47:56;49.90;;;29.80;;
75016;SDS011;63577;39.766;2.720;2024-01-25T09:50:21;49.60;;;28.90;;
75016;SDS011;63577;39.766;2.720;2024-01-25T09:52:49;46.30;;;26.30;;
75016;SDS011;63577;39.766;2.720;2024-01-25T09:55:15;45.60;;;26.80;;
75016;SDS011;63577;39.766;2.720;2024-01-25T09:57:45;43.40;;;26.40;;
75016;SDS011;63577;39.766;2.720;2024-01-25T10:00:12;43.80;;;28.20;;
75016;SDS011;63577;39.766;2.720;2024-01-25T10:02:38;40.60;;;26.00;;
75016;SDS011;63577;39.766;2.720;2024-01-25T10:05:04;39.10;;;26.90;;
75016;SDS011;63577;39.766;2.720;2024-01-25T10:07:38;31.00;;;21.20;;
75016;SDS011;63577;39.766;2.720;2024-01-25T10:10:04;31.30;;;22.00;;
75016;SDS011;63577;39.766;2.720;2024-01-25T10:12:30;34.80;;;24.30;;
75016;SDS011;63577;39.766;2.720;2024-01-25T10:14:56;32.50;;;25.60;;
75016;SDS011;63577;39.766;2.720;2024-01-25T10:17:21;35.50;;;25.50;;
75016;SDS011;63577;39.766;2.720;2024-01-25T10:19:46;26.50;;;18.40;;
75016;SDS011;63577;39.766;2.720;2024-01-25T10:22:12;21.10;;;15.70;;
75016;SDS011;63577;39.766;2.720;2024-01-25T10:24:38;20.60;;;17.30;;
75016;SDS011;63577;39.766;2.720;2024-01-25T10:27:04;19.90;;;15.40;;
75016;SDS011;63577;39.766;2.720;2024-01-25T10:29:29;18.30;;;13.30;;
75016;SDS011;63577;39.766;2.720;2024-01-25T10:31:55;13.70;;;11.30;;
75016;SDS011;63577;39.766;2.720;2024-01-25T10:34:20;13.40;;;10.90;;
75016;SDS011;63577;39.766;2.720;2024-01-25T10:36:47;12.20;;;10.20;;
75016;SDS011;63577;39.766;2.720;2024-01-25T10:39:15;11.90;;;9.70;;
75016;SDS011;63577;39.766;2.720;2024-01-25T10:41:40;10.30;;;8.50;;
75016;SDS011;63577;39.766;2.720;2024-01-25T10:44:06;11.20;;;8.50;;
75016;SDS011;63577;39.766;2.720;2024-01-25T10:46:32;10.90;;;9.10;;
75016;SDS011;63577;39.766;2.720;2024-01-25T10:48:58;10.00;;;7.40;;
75016;SDS011;63577;39.766;2.720;2024-01-25T10:51:27;11.10;;;6.90;;
75016;SDS011;63577;39.766;2.720;2024-01-25T10:53:52;9.90;;;7.30;;
75016;SDS011;63577;39.766;2.720;2024-01-25T10:56:18;11.10;;;7.10;;
75016;SDS011;63577;39.766;2.720;2024-01-25T10:58:43;9.20;;;6.90;;
75016;SDS011;63577;39.766;2.720;2024-01-25T11:01:09;9.40;;;6.60;;
75016;SDS011;63577;39.766;2.720;2024-01-25T11:03:38;8.20;;;5.90;;
75016;SDS011;63577;39.766;2.720;2024-01-25T11:06:08;8.60;;;6.80;;
75016;SDS011;63577;39.766;2.720;2024-01-25T11:08:36;10.60;;;7.40;;
75016;SDS011;63577;39.766;2.720;2024-01-25T11:11:08;9.50;;;7.10;;
75016;SDS011;63577;39.766;2.720;2024-01-25T11:13:35;10.90;;;7.30;;
75016;SDS011;63577;39.766;2.720;2024-01-25T11:16:16;12.30;;;8.20;;
75016;SDS011;63577;39.766;2.720;2024-01-25T11:18:52;10.90;;;7.90;;
75016;SDS011;63577;39.766;2.720;2024-01-25T11:24:02;10.50;;;7.50;;
75016;SDS011;63577;39.766;2.720;2024-01-25T11:26:28;12.20;;;8.30;;
75016;SDS011;63577;39.766;2.720;2024-01-25T11:28:54;17.30;;;11.30;;
75016;SDS011;63577;39.766;2.720;2024-01-25T11:31:21;23.40;;;11.20;;
75016;SDS011;63577;39.766;2.720;2024-01-25T11:33:46;22.70;;;11.60;;
75016;SDS011;63577;39.766;2.720;2024-01-25T11:36:12;19.60;;;11.10;;
75016;SDS011;63577;39.766;2.720;2024-01-25T11:38:38;14.80;;;8.60;;
75016;SDS011;63577;39.766;2.720;2024-01-25T11:41:03;10.10;;;6.70;;
75016;SDS011;63577;39.766;2.720;2024-01-25T11:43:28;10.40;;;6.10;;
75016;SDS011;63577;39.766;2.720;2024-01-25T11:45:54;10.60;;;6.90;;
75016;SDS011;63577;39.766;2.720;2024-01-25T11:48:20;12.10;;;7.20;;
75016;SDS011;63577;39.766;2.720;2024-01-25T11:50:45;9.60;;;7.00;;
75016;SDS011;63577;39.766;2.720;2024-01-25T11:53:11;8.50;;;5.90;;
75016;SDS011;63577;39.766;2.720;2024-01-25T11:55:36;8.90;;;5.70;;
75016;SDS011;63577;39.766;2.720;2024-01-25T11:58:01;8.30;;;6.10;;
75016;SDS011;63577;39.766;2.720;2024-01-25T12:00:27;8.70;;;5.50;;
75016;SDS011;63577;39.766;2.720;2024-01-25T12:02:53;9.20;;;5.70;;
75016;SDS011;63577;39.766;2.720;2024-01-25T12:05:19;10.80;;;6.80;;
75016;SDS011;63577;39.766;2.720;2024-01-25T12:07:44;12.20;;;8.20;;
75016;SDS011;63577;39.766;2.720;2024-01-25T12:10:10;12.20;;;8.50;;
75016;SDS011;63577;39.766;2.720;2024-01-25T12:12:40;13.50;;;9.10;;
75016;SDS011;63577;39.766;2.720;2024-01-25T12:15:05;14.00;;;9.70;;
75016;SDS011;63577;39.766;2.720;2024-01-25T12:17:32;14.40;;;9.60;;
75016;SDS011;63577;39.766;2.720;2024-01-25T12:20:01;13.50;;;8.60;;
75016;SDS011;63577;39.766;2.720;2024-01-25T12:22:27;11.00;;;7.80;;
75016;SDS011;63577;39.766;2.720;2024-01-25T12:24:55;12.50;;;8.00;;
75016;SDS011;63577;39.766;2.720;2024-01-25T12:27:21;13.50;;;9.40;;
75016;SDS011;63577;39.766;2.720;2024-01-25T12:29:50;12.70;;;8.30;;
75016;SDS011;63577;39.766;2.720;2024-01-25T12:32:16;17.10;;;11.20;;
75016;SDS011;63577;39.766;2.720;2024-01-25T12:34:42;20.90;;;14.40;;
75016;SDS011;63577;39.766;2.720;2024-01-25T12:37:09;24.80;;;16.40;;
75016;SDS011;63577;39.766;2.720;2024-01-25T12:39:34;22.10;;;15.90;;
75016;SDS011;63577;39.766;2.720;2024-01-25T12:41:59;20.80;;;14.50;;
75016;SDS011;63577;39.766;2.720;2024-01-25T12:44:25;8.40;;;5.30;;
75016;SDS011;63577;39.766;2.720;2024-01-25T12:46:51;12.70;;;8.00;;
75016;SDS011;63577;39.766;2.720;2024-01-25T12:49:17;14.30;;;10.70;;
75016;SDS011;63577;39.766;2.720;2024-01-25T12:51:42;16.00;;;10.70;;
75016;SDS011;63577;39.766;2.720;2024-01-25T12:54:08;18.20;;;12.10;;
75016;SDS011;63577;39.766;2.720;2024-01-25T12:56:34;21.80;;;15.40;;
75016;SDS011;63577;39.766;2.720;2024-01-25T12:58:59;20.60;;;14.10;;
75016;SDS011;63577;39.766;2.720;2024-01-25T13:01:24;22.30;;;14.40;;
75016;SDS011;63577;39.766;2.720;2024-01-25T13:03:50;17.60;;;11.90;;
75016;SDS011;63577;39.766;2.720;2024-01-25T13:06:15;11.40;;;6.70;;
75016;SDS011;63577;39.766;2.720;2024-01-25T13:08:40;11.60;;;7.90;;
75016;SDS011;63577;39.766;2.720;2024-01-25T13:11:06;12.10;;;8.10;;
75016;SDS011;63577;39.766;2.720;2024-01-25T13:13:31;14.30;;;9.70;;
75016;SDS011;63577;39.766;2.720;2024-01-25T13:15:57;14.30;;;9.70;;
75016;SDS011;63577;39.766;2.720;2024-01-25T13:18:22;13.00;;;9.90;;
75016;SDS011;63577;39.766;2.720;2024-01-25T13:20:47;13.80;;;8.70;;
75016;SDS011;63577;39.766;2.720;2024-01-25T13:23:13;13.50;;;7.60;;
75016;SDS011;63577;39.766;2.720;2024-01-25T13:25:38;11.10;;;6.60;;
75016;SDS011;63577;39.766;2.720;2024-01-25T13:28:04;9.60;;;6.20;;
75016;SDS011;63577;39.766;2.720;2024-01-25T13:30:29;11.30;;;6.60;;
75016;SDS011;63577;39.766;2.720;2024-01-25T13:32:55;13.20;;;8.30;;
75016;SDS011;63577;39.766;2.720;2024-01-25T13:35:20;15.00;;;9.80;;
75016;SDS011;63577;39.766;2.720;2024-01-25T13:37:46;16.30;;;10.40;;
75016;SDS011;63577;39.766;2.720;2024-01-25T13:40:11;10.80;;;7.70;;
75016;SDS011;63577;39.766;2.720;2024-01-25T13:42:36;11.20;;;7.00;;
75016;SDS011;63577;39.766;2.720;2024-01-25T13:45:02;9.90;;;6.50;;
75016;SDS011;63577;39.766;2.720;2024-01-25T13:47:27;11.10;;;6.20;;
75016;SDS011;63577;39.766;2.720;2024-01-25T13:49:53;10.50;;;7.20;;
75016;SDS011;63577;39.766;2.720;2024-01-25T13:52:19;10.20;;;6.60;;
75016;SDS011;63577;39.766;2.720;2024-01-25T13:54:45;8.90;;;5.70;;
75016;SDS011;63577;39.766;2.720;2024-01-25T13:57:10;10.70;;;6.40;;
75016;SDS011;63577;39.766;2.720;2024-01-25T13:59:36;12.10;;;7.40;;
75016;SDS011;63577;39.766;2.720;2024-01-25T14:02:01;10.70;;;6.60;;
75016;SDS011;63577;39.766;2.720;2024-01-25T14:04:26;9.60;;;6.30;;
75016;SDS011;63577;39.766;2.720;2024-01-25T14:06:52;10.10;;;6.40;;
75016;SDS011;63577;39.766;2.720;2024-01-25T14:09:17;10.20;;;6.30;;
75016;SDS011;63577;39.766;2.720;2024-01-25T14:11:42;10.50;;;6.20;;
75016;SDS011;63577;39.766;2.720;2024-01-25T14:14:08;10.90;;;6.90;;
75016;SDS011;63577;39.766;2.720;2024-01-25T14:16:33;12.40;;;6.30;;
75016;SDS011;63577;39.766;2.720;2024-01-25T14:18:58;8.50;;;4.80;;
75016;SDS011;63577;39.766;2.720;2024-01-25T14:21:24;6.40;;;4.00;;
75016;SDS011;63577;39.766;2.720;2024-01-25T14:23:49;7.10;;;3.90;;
75016;SDS011;63577;39.766;2.720;2024-01-25T14:26:15;8.70;;;4.30;;
75016;SDS011;63577;39.766;2.720;2024-01-25T14:28:40;8.80;;;4.60;;
75016;SDS011;63577;39.766;2.720;2024-01-25T14:31:05;7.50;;;4.30;;
75016;SDS011;63577;39.766;2.720;2024-01-25T14:33:31;9.00;;;4.40;;